Time;durP1;ratioP1;P1;durP2;ratioP2;P2;SDS_P1;SDS_P2;PMS_P1;PMS_P2;Temp;Humidity;BMP_temperature;BMP_pressure;BME280_temperature;BME280_humidity;BME280_pressure;Samples;Min_cycle;Max_cycle;Signal;HPM_P1;HPM_P2
2022/03/14 00:01:15;;;;;;;14.00;12.32;;;4.60;99.90;;;;;;5044081;28;20044;-73
2022/03/14 00:03:47;;;;;;;16.38;10.82;;;4.60;99.90;;;;;;5048316;28;20024;-73
2022/03/14 00:06:14;;;;;;;;;;;4.60;99.90;;;;;;5051433;28;20028;-74
2022/03/14 00:08:41;;;;;;;14.43;10.88;;;4.60;99.90;;;;;;5045126;28;19905;-75
2022/03/14 00:11:07;;;;;;;16.42;12.55;;;4.50;99.90;;;;;;5050490;28;20021;-71
2022/03/14 00:13:33;;;;;;;12.18;10.32;;;4.50;99.90;;;;;;5052818;28;20033;-72
2022/03/14 00:15:59;;;;;;;11.88;10.40;;;4.50;99.90;;;;;;5054675;28;20108;-74
2022/03/14 00:18:30;;;;;;;15.18;11.50;;;4.50;99.90;;;;;;5055120;28;20068;-75
2022/03/14 00:20:55;;;;;;;15.63;11.82;;;4.40;99.90;;;;;;5034939;28;20021;-72
2022/03/14 00:23:21;;;;;;;12.65;10.88;;;4.50;99.90;;;;;;5052928;28;20533;-73
2022/03/14 00:25:48;;;;;;;11.48;9.98;;;4.50;99.90;;;;;;5053925;28;20363;-73
2022/03/14 00:28:14;;;;;;;11.52;10.32;;;4.40;99.90;;;;;;5056202;28;20044;-72
2022/03/14 00:30:40;;;;;;;14.27;11.00;;;4.40;99.90;;;;;;5055599;28;20494;-72
2022/03/14 00:33:05;;;;;;;17.83;11.63;;;4.40;99.90;;;;;;5051556;28;20057;-75
2022/03/14 00:35:32;;;;;;;17.85;10.25;;;4.40;99.90;;;;;;5034252;28;20033;-72
2022/03/14 00:37:59;;;;;;;13.65;11.38;;;4.40;99.90;;;;;;5033872;28;20033;-72
2022/03/14 00:40:24;;;;;;;12.82;11.18;;;4.30;99.90;;;;;;5052291;28;20028;-73
2022/03/14 00:42:50;;;;;;;17.17;11.02;;;4.30;99.90;;;;;;5052416;28;20021;-74
2022/03/14 00:45:16;;;;;;;13.80;11.18;;;4.30;99.90;;;;;;5053964;28;20024;-73
2022/03/14 00:47:42;;;;;;;12.68;10.93;;;4.30;99.90;;;;;;5053191;28;20391;-75
2022/03/14 00:50:08;;;;;;;11.70;9.60;;;4.30;99.90;;;;;;5051402;28;20036;-71
2022/03/14 00:52:34;;;;;;;13.23;11.05;;;4.30;99.90;;;;;;5048228;28;20029;-72
2022/03/14 00:55:00;;;;;;;13.15;10.85;;;4.20;99.90;;;;;;5036378;28;20048;-72
2022/03/14 00:57:26;;;;;;;12.32;10.90;;;4.30;99.90;;;;;;5032389;28;20021;-73
2022/03/14 00:59:52;;;;;;;11.65;10.43;;;4.30;99.90;;;;;;5048823;28;20025;-70
2022/03/14 01:02:18;;;;;;;13.60;9.73;;;4.30;99.90;;;;;;5051049;28;20037;-71
2022/03/14 01:04:43;;;;;;;12.88;10.30;;;4.30;99.90;;;;;;5051035;28;20021;-74
2022/03/14 01:07:09;;;;;;;10.43;9.43;;;4.30;99.90;;;;;;5051162;28;20032;-74
2022/03/14 01:09:35;;;;;;;21.92;11.30;;;4.30;99.90;;;;;;5052629;28;20115;-73
2022/03/14 01:12:02;;;;;;;12.80;10.68;;;4.30;99.90;;;;;;5052046;28;20669;-72
2022/03/14 01:14:28;;;;;;;14.48;10.13;;;4.40;99.90;;;;;;5039458;28;20025;-76
2022/03/14 01:16:54;;;;;;;14.40;10.35;;;4.40;99.90;;;;;;5050852;28;20167;-74
2022/03/14 01:19:20;;;;;;;14.02;10.07;;;4.30;99.90;;;;;;5040502;28;20033;-74
2022/03/14 01:21:47;;;;;;;13.10;9.60;;;4.30;99.90;;;;;;5043689;28;20021;-74
2022/03/14 01:24:13;;;;;;;14.77;9.63;;;4.20;99.90;;;;;;5047116;28;20083;-72
2022/03/14 01:26:38;;;;;;;12.95;9.48;;;4.20;99.90;;;;;;5036176;28;20064;-72
2022/03/14 01:29:05;;;;;;;11.90;10.40;;;4.20;99.90;;;;;;5038686;28;20069;-73
2022/03/14 01:31:31;;;;;;;12.32;8.70;;;4.20;99.90;;;;;;5036938;28;20028;-72
2022/03/14 01:33:57;;;;;;;12.73;11.40;;;4.20;99.90;;;;;;5063740;28;20108;-71
2022/03/14 01:36:23;;;;;;;18.58;10.20;;;4.10;99.90;;;;;;5039186;28;20152;-72
2022/03/14 01:38:49;;;;;;;11.57;9.10;;;4.10;99.90;;;;;;5050488;28;20061;-73
2022/03/14 01:41:17;;;;;;;10.93;9.10;;;4.10;99.90;;;;;;5047652;28;20380;-71
2022/03/14 01:43:44;;;;;;;9.75;7.85;;;4.10;99.90;;;;;;5046912;28;20075;-73
2022/03/14 01:46:10;;;;;;;10.88;9.10;;;4.10;99.90;;;;;;5042213;28;20112;-72
2022/03/14 01:48:35;;;;;;;12.15;9.90;;;4.10;99.90;;;;;;5043677;28;20112;-71
2022/03/14 01:51:01;;;;;;;10.13;9.02;;;4.10;99.90;;;;;;5040105;28;20057;-75
2022/03/14 01:53:30;;;;;;;11.65;9.63;;;4.10;99.90;;;;;;5047263;28;20385;-71
2022/03/14 01:55:56;;;;;;;10.45;9.35;;;4.00;99.90;;;;;;5049285;28;20542;-72
2022/03/14 01:58:22;;;;;;;13.95;10.45;;;4.00;99.90;;;;;;5046097;28;20135;-74
2022/03/14 02:00:48;;;;;;;16.55;10.02;;;4.00;99.90;;;;;;5043821;28;20033;-73
2022/03/14 02:03:14;;;;;;;15.95;10.85;;;4.00;99.90;;;;;;5045037;28;20068;-74
2022/03/14 02:05:40;;;;;;;10.10;8.85;;;4.10;99.90;;;;;;5044714;28;20031;-72
2022/03/14 02:08:07;;;;;;;11.50;9.70;;;4.10;99.90;;;;;;5041251;28;20027;-73
2022/03/14 02:10:38;;;;;;;13.65;10.13;;;4.20;99.90;;;;;;5057614;28;20032;-72
2022/03/14 02:13:08;;;;;;;12.77;10.10;;;4.10;99.90;;;;;;5042390;28;20426;-72
2022/03/14 02:15:35;;;;;;;11.98;9.50;;;4.10;99.90;;;;;;5042444;28;20109;-73
2022/03/14 02:18:01;;;;;;;10.98;9.90;;;4.10;99.90;;;;;;5037559;28;20025;-72
2022/03/14 02:20:27;;;;;;;11.93;9.70;;;4.00;99.90;;;;;;5046288;28;20082;-73
2022/03/14 02:22:53;;;;;;;12.60;10.30;;;4.00;99.90;;;;;;5046190;28;20468;-73
2022/03/14 02:25:19;;;;;;;11.77;9.40;;;4.00;99.90;;;;;;5043578;28;20516;-72
2022/03/14 02:27:44;;;;;;;10.88;8.95;;;4.00;99.90;;;;;;5043292;28;20491;-73
2022/03/14 02:30:10;;;;;;;14.38;9.18;;;4.10;99.90;;;;;;5041939;28;20013;-72
2022/03/14 02:32:41;;;;;;;14.35;10.50;;;4.00;99.90;;;;;;5046325;28;20491;-72
2022/03/14 02:35:08;;;;;;;11.90;8.73;;;4.00;99.90;;;;;;5043821;28;20091;-72
2022/03/14 02:37:34;;;;;;;12.43;9.45;;;4.00;99.90;;;;;;5040660;28;20417;-73
2022/03/14 02:40:00;;;;;;;12.45;9.02;;;3.90;99.90;;;;;;5049227;28;20025;-71
2022/03/14 02:42:26;;;;;;;10.65;9.13;;;3.90;99.90;;;;;;5039296;28;20047;-74
2022/03/14 02:44:52;;;;;;;12.43;9.38;;;3.80;99.90;;;;;;5046444;28;20059;-75
2022/03/14 02:47:19;;;;;;;12.38;9.85;;;3.80;99.90;;;;;;5043069;28;20470;-72
2022/03/14 02:49:45;;;;;;;12.27;9.75;;;3.70;99.90;;;;;;5045662;28;20451;-71
2022/03/14 02:52:11;;;;;;;15.05;12.93;;;3.80;99.90;;;;;;5046089;28;20033;-72
2022/03/14 02:54:37;;;;;;;11.90;9.88;;;3.70;99.90;;;;;;5043113;28;20032;-72
2022/03/14 02:57:05;;;;;;;10.05;9.00;;;3.70;99.90;;;;;;5040273;28;20328;-75
2022/03/14 02:59:32;;;;;;;11.43;9.43;;;3.60;99.90;;;;;;5044368;28;20696;-72
2022/03/14 03:01:57;;;;;;;14.95;9.27;;;3.60;99.90;;;;;;5041488;28;20028;-72
2022/03/14 03:04:23;;;;;;;13.65;9.50;;;3.70;99.90;;;;;;5036620;28;20014;-73
2022/03/14 03:06:49;;;;;;;12.65;9.63;;;3.60;99.90;;;;;;5043924;28;20021;-73
2022/03/14 03:09:15;;;;;;;12.20;10.50;;;3.70;99.90;;;;;;5045760;28;20401;-76
2022/03/14 03:11:41;;;;;;;11.15;9.45;;;3.70;99.90;;;;;;5042592;28;20052;-75
2022/03/14 03:14:07;;;;;;;11.27;10.07;;;3.80;99.90;;;;;;5038576;28;20475;-72
2022/03/14 03:16:34;;;;;;;10.82;9.10;;;3.80;99.90;;;;;;5035504;28;20555;-74
2022/03/14 03:19:00;;;;;;;10.88;9.63;;;3.70;99.90;;;;;;5040133;28;20144;-73
2022/03/14 03:21:26;;;;;;;9.77;8.75;;;3.70;99.90;;;;;;5050023;28;20112;-75
2022/03/14 03:23:52;;;;;;;11.38;10.10;;;3.80;99.90;;;;;;5052200;28;20036;-73
2022/03/14 03:26:19;;;;;;;12.07;10.20;;;3.80;99.90;;;;;;5055073;28;20025;-72
2022/03/14 03:28:45;;;;;;;13.07;10.30;;;3.70;99.90;;;;;;5056373;28;20067;-72
2022/03/14 03:31:13;;;;;;;10.52;9.43;;;3.70;99.90;;;;;;5056247;28;20024;-72
2022/03/14 03:33:39;;;;;;;12.43;8.77;;;3.80;99.90;;;;;;5054807;28;20083;-72
2022/03/14 03:36:07;;;;;;;12.00;9.30;;;3.80;99.90;;;;;;5054062;28;20025;-71
2022/03/14 03:38:33;;;;;;;11.27;9.68;;;3.70;99.90;;;;;;5050419;28;20075;-73
2022/03/14 03:40:59;;;;;;;11.45;9.27;;;3.80;99.90;;;;;;5056026;28;20132;-71
2022/03/14 03:43:25;;;;;;;13.60;10.30;;;3.80;99.90;;;;;;5056428;28;20029;-72
2022/03/14 03:45:51;;;;;;;10.55;8.85;;;3.80;99.90;;;;;;5056048;28;20025;-73
2022/03/14 03:48:17;;;;;;;14.27;9.57;;;3.90;99.90;;;;;;5056485;28;20031;-72
2022/03/14 03:50:44;;;;;;;13.25;9.18;;;3.80;99.90;;;;;;5054848;28;20133;-74
2022/03/14 03:53:10;;;;;;;14.77;8.55;;;3.80;99.90;;;;;;5054878;28;20061;-71
2022/03/14 03:55:35;;;;;;;9.70;8.70;;;3.70;99.90;;;;;;5046411;28;20443;-75
2022/03/14 03:58:02;;;;;;;13.40;9.40;;;3.80;99.90;;;;;;5063592;28;20388;-70
2022/03/14 04:00:27;;;;;;;14.45;9.30;;;3.80;99.90;;;;;;5054474;28;20028;-71
2022/03/14 04:02:53;;;;;;;14.75;9.65;;;3.80;99.90;;;;;;5055829;28;20037;-72
2022/03/14 04:05:22;;;;;;;11.55;9.45;;;3.80;99.90;;;;;;5054773;28;20029;-72
2022/03/14 04:07:48;;;;;;;11.30;10.00;;;3.80;99.90;;;;;;5054514;28;20032;-73
2022/03/14 04:10:15;;;;;;;11.40;9.55;;;3.80;99.90;;;;;;5056413;28;20021;-75
2022/03/14 04:12:44;;;;;;;10.52;9.43;;;3.80;99.90;;;;;;5056130;28;20475;-73
2022/03/14 04:15:11;;;;;;;13.60;10.32;;;3.80;99.90;;;;;;5051451;28;20471;-72
2022/03/14 04:17:39;;;;;;;11.82;10.48;;;3.90;99.90;;;;;;5047175;28;20514;-74
2022/03/14 04:20:06;;;;;;;12.57;9.75;;;3.90;99.90;;;;;;5043944;28;20528;-72
2022/03/14 04:22:35;;;;;;;14.07;9.15;;;3.80;99.90;;;;;;5042009;28;20112;-72
2022/03/14 04:25:01;;;;;;;11.98;9.20;;;3.80;99.90;;;;;;5046888;28;20173;-74
2022/03/14 04:27:27;;;;;;;16.10;11.02;;;3.70;99.90;;;;;;5047728;28;20049;-72
2022/03/14 04:29:52;;;;;;;15.80;10.32;;;3.70;99.90;;;;;;5050677;28;20029;-72
2022/03/14 04:32:18;;;;;;;14.52;10.43;;;3.80;99.90;;;;;;5047166;28;20039;-73
2022/03/14 04:34:44;;;;;;;13.23;9.57;;;3.80;99.90;;;;;;5047313;28;20105;-72
2022/03/14 04:37:13;;;;;;;13.52;10.68;;;3.80;99.90;;;;;;5044115;28;20043;-72
2022/03/14 04:39:40;;;;;;;11.20;10.10;;;3.80;99.90;;;;;;5043664;28;20051;-71
2022/03/14 04:42:07;;;;;;;14.45;10.48;;;3.80;99.90;;;;;;5046899;28;20477;-73
2022/03/14 04:44:34;;;;;;;11.10;10.00;;;3.80;99.90;;;;;;5039802;28;20048;-72
2022/03/14 04:46:59;;;;;;;14.73;9.95;;;3.80;99.90;;;;;;5051223;28;20025;-70
2022/03/14 04:49:30;;;;;;;15.20;10.00;;;3.80;99.90;;;;;;5044841;28;20094;-73
2022/03/14 04:51:59;;;;;;;14.63;10.57;;;3.80;99.90;;;;;;5046448;28;20025;-72
2022/03/14 04:54:26;;;;;;;13.48;11.07;;;3.70;99.90;;;;;;5044587;28;20037;-72
2022/03/14 04:56:58;;;;;;;13.40;11.10;;;3.80;99.90;;;;;;5042953;28;20029;-72
2022/03/14 04:59:31;;;;;;;20.75;10.70;;;3.80;99.90;;;;;;5043663;28;20060;-71
2022/03/14 05:02:01;;;;;;;10.70;9.27;;;3.90;99.90;;;;;;5046033;28;20056;-75
2022/03/14 05:04:28;;;;;;;14.98;9.68;;;3.90;99.90;;;;;;5045137;28;20754;-73
2022/03/14 05:06:54;;;;;;;12.43;10.05;;;3.90;99.90;;;;;;5048190;28;20147;-73
2022/03/14 05:09:29;;;;;;;14.32;10.95;;;3.90;99.90;;;;;;5060254;28;20060;-72
2022/03/14 05:11:58;;;;;;;13.23;10.55;;;4.00;99.90;;;;;;5045160;28;20079;-71
2022/03/14 05:14:25;;;;;;;11.88;9.40;;;4.00;99.90;;;;;;5046475;28;20132;-72
2022/03/14 05:16:51;;;;;;;13.35;9.98;;;4.10;99.90;;;;;;5043864;28;20110;-75
2022/03/14 05:19:18;;;;;;;14.25;9.13;;;4.20;99.90;;;;;;5046458;28;20025;-73
2022/03/14 05:21:47;;;;;;;12.90;10.68;;;4.10;99.90;;;;;;5045549;28;20025;-73
2022/03/14 05:24:14;;;;;;;15.18;10.60;;;4.20;99.90;;;;;;5040231;28;20472;-73
2022/03/14 05:26:41;;;;;;;13.63;9.30;;;4.20;99.90;;;;;;5048110;28;20082;-74
2022/03/14 05:29:08;;;;;;;9.98;8.82;;;4.20;99.90;;;;;;5047807;28;20021;-75
2022/03/14 05:31:35;;;;;;;11.73;9.98;;;4.20;99.90;;;;;;5046733;28;20049;-74
2022/03/14 05:34:01;;;;;;;20.33;9.65;;;4.20;99.90;;;;;;5060856;28;20044;-74
2022/03/14 05:36:27;;;;;;;15.70;9.63;;;4.20;99.90;;;;;;5045406;28;20017;-72
2022/03/14 05:38:53;;;;;;;13.80;10.40;;;4.30;99.90;;;;;;5047951;28;20119;-72
2022/03/14 05:41:19;;;;;;;16.65;10.32;;;4.30;99.90;;;;;;5048531;28;20033;-74
2022/03/14 05:43:45;;;;;;;15.25;10.63;;;4.30;99.90;;;;;;5048216;28;20756;-73
2022/03/14 05:46:11;;;;;;;24.73;11.05;;;4.30;99.90;;;;;;5041459;28;20028;-72
2022/03/14 05:48:36;;;;;;;20.52;11.10;;;4.30;99.90;;;;;;5038711;28;20113;-71
2022/03/14 05:51:04;;;;;;;14.30;11.07;;;4.20;99.90;;;;;;5042952;28;20029;-72
2022/03/14 05:53:31;;;;;;;14.02;11.30;;;4.30;99.90;;;;;;5048358;28;20060;-75
2022/03/14 05:55:58;;;;;;;20.27;12.55;;;4.40;99.90;;;;;;5048475;28;20092;-72
2022/03/14 05:58:24;;;;;;;16.35;12.68;;;4.40;99.90;;;;;;5050368;28;20083;-73
2022/03/14 06:00:52;;;;;;;13.65;10.82;;;4.60;99.90;;;;;;5046413;28;20498;-73
2022/03/14 06:03:20;;;;;;;16.17;11.25;;;4.70;99.90;;;;;;5042597;28;20032;-76
2022/03/14 06:05:49;;;;;;;17.30;12.07;;;4.70;99.90;;;;;;5044964;28;20036;-74
2022/03/14 06:08:15;;;;;;;13.43;11.23;;;4.80;99.90;;;;;;5057740;28;20030;-75
2022/03/14 06:10:42;;;;;;;16.08;12.25;;;4.90;99.90;;;;;;5052912;28;20028;-74
2022/03/14 06:13:08;;;;;;;11.98;10.07;;;5.00;99.90;;;;;;5051633;28;20106;-74
2022/03/14 06:15:34;;;;;;;14.63;11.88;;;5.00;99.90;;;;;;5050548;28;20571;-74
2022/03/14 06:18:00;;;;;;;18.50;11.98;;;5.00;99.90;;;;;;5050679;28;20490;-73
2022/03/14 06:20:25;;;;;;;17.15;11.40;;;5.00;99.90;;;;;;5051382;28;20017;-73
2022/03/14 06:22:51;;;;;;;14.18;10.65;;;5.00;99.90;;;;;;5059919;28;20029;-73
2022/03/14 06:25:18;;;;;;;20.60;13.02;;;5.10;99.90;;;;;;5051704;28;20024;-76
2022/03/14 06:27:46;;;;;;;16.08;13.40;;;5.10;99.90;;;;;;5051426;28;20037;-73
2022/03/14 06:30:13;;;;;;;19.10;14.13;;;5.10;99.90;;;;;;5049678;28;20112;-72
2022/03/14 06:32:40;;;;;;;23.17;13.85;;;5.20;99.90;;;;;;5051472;28;20538;-73
2022/03/14 06:35:08;;;;;;;22.05;14.00;;;5.20;99.90;;;;;;5050141;28;20035;-74
2022/03/14 06:37:34;;;;;;;18.88;13.10;;;5.30;99.90;;;;;;5050998;28;20039;-73
2022/03/14 06:40:02;;;;;;;24.20;12.48;;;5.20;99.90;;;;;;5051207;28;20025;-73
2022/03/14 06:42:28;;;;;;;26.60;13.20;;;5.30;99.90;;;;;;5050740;28;20021;-74
2022/03/14 06:44:56;;;;;;;15.43;12.98;;;5.30;99.90;;;;;;5050742;28;20020;-74
2022/03/14 06:47:22;;;;;;;21.85;12.60;;;5.40;99.90;;;;;;5050905;28;20025;-77
2022/03/14 06:49:48;;;;;;;17.33;12.45;;;5.60;99.90;;;;;;5050307;28;20097;-73
2022/03/14 06:52:15;;;;;;;17.58;13.50;;;5.60;99.90;;;;;;5051616;28;20067;-75
2022/03/14 06:54:41;;;;;;;23.25;11.32;;;5.60;99.90;;;;;;5052268;28;20029;-74
2022/03/14 06:57:08;;;;;;;15.88;13.05;;;5.80;99.90;;;;;;5049726;28;20046;-74
2022/03/14 06:59:35;;;;;;;22.15;12.23;;;5.90;99.90;;;;;;5049725;28;20116;-65
2022/03/14 07:02:01;;;;;;;19.80;12.80;;;6.00;99.90;;;;;;5049461;28;20668;-65
2022/03/14 07:04:27;;;;;;;24.13;13.20;;;6.10;99.90;;;;;;5049850;28;20484;-65
2022/03/14 07:06:53;;;;;;;28.33;12.50;;;6.20;99.90;;;;;;5049151;28;20048;-65
2022/03/14 07:09:19;;;;;;;22.00;13.10;;;6.30;99.90;;;;;;5049481;28;20025;-66
2022/03/14 07:11:45;;;;;;;29.65;13.52;;;6.50;99.90;;;;;;5050259;28;20063;-65
2022/03/14 07:14:11;;;;;;;16.60;11.73;;;6.60;99.90;;;;;;5050892;28;20031;-65
2022/03/14 07:16:37;;;;;;;16.50;12.75;;;6.80;99.90;;;;;;5050492;28;20165;-64
2022/03/14 07:19:03;;;;;;;21.83;13.15;;;7.00;99.90;;;;;;5048800;28;20036;-65
2022/03/14 07:21:29;;;;;;;22.88;13.98;;;7.10;99.90;;;;;;5050334;28;20024;-65
2022/03/14 07:23:57;;;;;;;21.90;14.18;;;7.40;99.90;;;;;;5050474;28;20025;-66
2022/03/14 07:26:24;;;;;;;23.73;13.85;;;7.50;99.90;;;;;;5050469;28;20037;-66
2022/03/14 07:28:50;;;;;;;30.52;14.38;;;7.70;99.90;;;;;;5049897;28;20031;-65
2022/03/14 07:31:18;;;;;;;25.23;14.50;;;7.90;99.90;;;;;;5050524;28;20057;-65
2022/03/14 07:33:45;;;;;;;24.33;14.85;;;8.10;99.90;;;;;;5050191;28;20112;-65
2022/03/14 07:36:11;;;;;;;25.52;15.18;;;8.20;99.90;;;;;;5050058;28;20024;-65
2022/03/14 07:38:37;;;;;;;18.17;13.13;;;8.20;99.90;;;;;;5049982;28;20041;-65
2022/03/14 07:41:03;;;;;;;21.02;13.88;;;8.40;99.90;;;;;;5050100;28;20110;-66
2022/03/14 07:43:28;;;;;;;30.17;14.77;;;8.60;99.90;;;;;;5048841;28;20223;-65
2022/03/14 07:46:04;;;;;;;27.65;14.02;;;8.70;99.90;;;;;;5046109;28;20391;-65
2022/03/14 07:48:30;;;;;;;18.38;12.38;;;8.80;99.90;;;;;;5029099;28;20032;-64
2022/03/14 07:50:56;;;;;;;14.32;11.45;;;8.90;99.90;;;;;;5038717;28;20092;-65
2022/03/14 07:53:22;;;;;;;16.88;13.32;;;9.10;99.90;;;;;;5050368;28;20159;-65
2022/03/14 07:55:48;;;;;;;15.73;13.15;;;9.30;99.90;;;;;;5049932;28;20040;-65
2022/03/14 07:58:14;;;;;;;20.17;12.10;;;9.40;99.90;;;;;;5050139;28;20387;-65
2022/03/14 08:00:39;;;;;;;15.07;9.68;;;9.50;99.90;;;;;;5050479;28;20029;-65
2022/03/14 08:03:06;;;;;;;23.52;10.82;;;9.60;99.90;;;;;;5050158;28;20029;-66
2022/03/14 08:05:33;;;;;;;24.20;16.73;;;9.70;99.90;;;;;;5050584;28;20017;-67
2022/03/14 08:08:03;;;;;;;29.73;15.68;;;9.70;99.90;;;;;;5048654;28;20087;-66
2022/03/14 08:10:30;;;;;;;29.02;17.77;;;9.90;99.90;;;;;;5051686;28;20079;-67
2022/03/14 08:12:57;;;;;;;47.03;29.52;;;9.90;99.90;;;;;;5052611;28;20045;-66
2022/03/14 08:15:23;;;;;;;32.90;25.08;;;10.00;99.90;;;;;;5052976;28;20498;-67
2022/03/14 08:17:50;;;;;;;33.88;22.17;;;10.00;99.90;;;;;;5055727;28;20033;-66
2022/03/14 08:20:16;;;;;;;42.88;21.02;;;10.00;99.90;;;;;;5052807;28;20032;-65
2022/03/14 08:22:43;;;;;;;28.38;18.13;;;10.00;99.90;;;;;;5052890;28;20085;-65
2022/03/14 08:25:09;;;;;;;26.35;18.13;;;10.10;99.90;;;;;;5053125;28;20059;-66
2022/03/14 08:27:35;;;;;;;22.08;19.65;;;10.20;99.90;;;;;;5052333;28;20108;-66
2022/03/14 08:30:01;;;;;;;28.40;18.35;;;10.40;99.90;;;;;;5051987;28;20160;-66
2022/03/14 08:32:27;;;;;;;26.67;17.75;;;10.40;99.90;;;;;;5055681;28;20069;-68
2022/03/14 08:34:53;;;;;;;25.80;18.35;;;10.30;99.90;;;;;;5052383;28;20495;-69
2022/03/14 08:37:20;;;;;;;35.22;18.77;;;10.30;99.90;;;;;;5053282;28;20098;-69
2022/03/14 08:39:47;;;;;;;32.33;19.67;;;10.30;99.90;;;;;;5051570;28;20491;-68
2022/03/14 08:42:13;;;;;;;25.98;17.80;;;10.30;99.90;;;;;;5051433;28;20040;-69
2022/03/14 08:44:39;;;;;;;20.77;17.33;;;10.60;99.90;;;;;;5052924;28;20028;-69
2022/03/14 08:47:05;;;;;;;24.70;17.95;;;10.70;99.90;;;;;;5051731;28;20021;-68
2022/03/14 08:49:31;;;;;;;23.25;13.23;;;10.70;99.90;;;;;;5052379;28;20033;-69
2022/03/14 08:51:56;;;;;;;14.65;12.05;;;10.80;99.90;;;;;;5051623;28;20491;-69
2022/03/14 08:54:22;;;;;;;23.63;13.38;;;10.90;99.90;;;;;;5054511;28;20059;-68
2022/03/14 08:56:48;;;;;;;22.65;12.70;;;11.00;99.90;;;;;;5053689;28;20044;-69
2022/03/14 08:59:14;;;;;;;20.83;14.02;;;11.10;99.90;;;;;;5052629;28;20102;-68
2022/03/14 09:01:41;;;;;;;19.58;14.45;;;11.20;99.90;;;;;;5053156;28;20128;-68
2022/03/14 09:04:07;;;;;;;30.48;14.15;;;11.30;99.90;;;;;;5051726;28;20029;-69
2022/03/14 09:06:36;;;;;;;23.98;14.13;;;11.40;99.90;;;;;;5052374;28;20025;-68
2022/03/14 09:09:03;;;;;;;20.80;12.82;;;11.60;99.90;;;;;;5053651;28;20104;-69
2022/03/14 09:11:29;;;;;;;22.98;11.30;;;11.60;99.90;;;;;;5053890;28;20037;-69
2022/03/14 09:13:55;;;;;;;19.92;13.18;;;11.80;99.90;;;;;;5053386;28;20024;-68
2022/03/14 09:16:20;;;;;;;24.15;12.40;;;11.90;99.90;;;;;;5053610;28;20462;-69
2022/03/14 09:18:47;;;;;;;15.15;11.93;;;11.90;99.90;;;;;;5050924;28;20491;-69
2022/03/14 09:21:14;;;;;;;12.85;10.18;;;12.00;99.90;;;;;;5051383;28;20040;-69
2022/03/14 09:23:41;;;;;;;16.90;11.18;;;12.10;99.90;;;;;;5051591;28;20036;-69
2022/03/14 09:26:07;;;;;;;9.55;8.65;;;12.10;99.90;;;;;;5052440;28;20024;-69
2022/03/14 09:28:34;;;;;;;14.10;9.88;;;12.00;99.90;;;;;;5052777;28;20088;-69
2022/03/14 09:31:00;;;;;;;12.75;8.13;;;11.90;99.90;;;;;;5053403;28;20033;-69
2022/03/14 09:33:26;;;;;;;12.32;8.93;;;11.80;99.90;;;;;;5051399;28;20048;-68
2022/03/14 09:35:51;;;;;;;9.70;8.70;;;11.70;99.90;;;;;;5051565;28;20025;-68
2022/03/14 09:38:17;;;;;;;18.08;14.48;;;11.90;99.90;;;;;;5052293;28;20055;-68
2022/03/14 09:40:45;;;;;;;14.32;9.98;;;12.00;99.90;;;;;;5050565;28;20487;-68
2022/03/14 09:43:12;;;;;;;15.43;7.45;;;12.00;99.90;;;;;;5045867;28;20031;-69
2022/03/14 09:45:39;;;;;;;10.60;6.45;;;12.00;99.90;;;;;;5041551;28;20428;-68
2022/03/14 09:48:07;;;;;;;9.30;7.75;;;11.90;99.90;;;;;;5050549;28;20063;-69
2022/03/14 09:50:37;;;;;;;10.00;6.93;;;12.00;99.90;;;;;;5051445;28;20021;-69
2022/03/14 09:53:11;;;;;;;11.50;7.30;;;12.00;99.90;;;;;;5066554;28;20021;-68
2022/03/14 09:55:46;;;;;;;8.20;6.72;;;12.10;99.90;;;;;;5053161;28;20032;-68
2022/03/14 09:58:14;;;;;;;8.23;5.88;;;12.40;99.90;;;;;;5052719;28;20229;-67
2022/03/14 10:00:40;;;;;;;10.20;6.65;;;12.60;99.90;;;;;;5052232;28;20021;-68
2022/03/14 10:03:06;;;;;;;12.88;7.57;;;12.70;99.90;;;;;;5054365;28;20063;-68
2022/03/14 10:05:32;;;;;;;9.38;7.68;;;12.70;99.90;;;;;;5051592;28;20024;-68
2022/03/14 10:07:58;;;;;;;6.95;6.15;;;12.70;99.90;;;;;;5047374;28;20026;-68
2022/03/14 10:10:24;;;;;;;10.13;7.05;;;12.90;99.90;;;;;;5055822;28;20028;-68
2022/03/14 10:12:53;;;;;;;7.45;6.78;;;12.90;99.90;;;;;;5051677;28;20025;-68
2022/03/14 10:15:21;;;;;;;7.65;6.50;;;12.90;99.90;;;;;;5050657;28;20395;-68
2022/03/14 10:17:47;;;;;;;6.60;5.97;;;12.80;99.90;;;;;;5051786;28;20116;-68
2022/03/14 10:20:15;;;;;;;6.47;5.75;;;12.50;99.90;;;;;;5050308;28;20025;-68
2022/03/14 10:22:42;;;;;;;10.55;5.35;;;12.20;99.90;;;;;;5051628;28;20036;-67
2022/03/14 10:25:13;;;;;;;4.68;4.28;;;12.10;99.90;;;;;;5052571;28;20021;-69
2022/03/14 10:27:49;;;;;;;12.10;5.63;;;12.00;99.90;;;;;;5053011;28;20660;-68
2022/03/14 10:30:48;;;;;;;6.95;5.60;;;12.00;99.90;;;;;;5051987;28;20471;-68
2022/03/14 10:33:14;;;;;;;6.90;5.40;;;12.00;99.90;;;;;;5050181;28;20039;-68
2022/03/14 10:35:44;;;;;;;7.43;5.93;;;12.10;99.90;;;;;;5052487;28;20029;-68
2022/03/14 10:38:12;;;;;;;7.75;5.65;;;12.10;99.90;;;;;;5050330;28;20025;-70
2022/03/14 10:40:40;;;;;;;9.65;6.72;;;12.30;99.90;;;;;;5049695;28;20029;-68
2022/03/14 10:43:27;;;;;;;9.90;8.60;;;12.60;99.90;;;;;;5050086;28;20044;-69
2022/03/14 10:45:55;;;;;;;6.25;5.68;;;12.70;99.90;;;;;;5031942;28;20101;-69
2022/03/14 10:48:39;;;;;;;10.32;6.50;;;12.50;99.90;;;;;;5036842;28;20099;-69
2022/03/14 10:51:08;;;;;;;7.30;6.50;;;12.30;99.90;;;;;;5046034;28;20085;-70
2022/03/14 10:53:39;;;;;;;9.30;7.03;;;12.40;99.90;;;;;;5044519;28;20395;-69
2022/03/14 10:56:05;;;;;;;7.82;5.45;;;12.60;99.90;;;;;;5049597;28;20033;-72
2022/03/14 10:58:33;;;;;;;7.05;6.45;;;12.90;99.90;;;;;;5046313;28;20253;-69
2022/03/14 11:01:06;;;;;;;9.60;6.78;;;13.30;99.90;;;;;;5034075;28;20112;-71
2022/03/14 11:03:37;;;;;;;8.30;6.60;;;13.40;99.90;;;;;;5047712;28;20487;-69
2022/03/14 11:06:21;;;;;;;19.33;8.65;;;13.60;99.90;;;;;;5052003;28;20024;-66
2022/03/14 11:08:47;;;;;;;11.32;7.45;;;13.60;99.90;;;;;;5039505;28;20040;-66
2022/03/14 11:11:15;;;;;;;9.73;6.75;;;13.60;99.90;;;;;;5050149;28;20029;-66
2022/03/14 11:13:42;;;;;;;12.35;6.75;;;13.50;99.90;;;;;;5050889;28;20034;-67
2022/03/14 11:16:29;;;;;;;10.57;7.13;;;13.20;99.90;;;;;;5042447;28;20079;-66
2022/03/14 11:18:56;;;;;;;8.38;6.65;;;12.80;99.90;;;;;;5045786;28;20055;-65
2022/03/14 11:21:27;;;;;;;8.52;7.75;;;12.60;99.90;;;;;;5050245;28;20029;-66
2022/03/14 11:23:55;;;;;;;11.10;6.20;;;12.20;99.90;;;;;;5031011;28;20018;-66
2022/03/14 11:26:25;;;;;;;8.18;7.28;;;12.10;99.90;;;;;;5030849;28;20022;-66
2022/03/14 11:28:54;;;;;;;16.48;7.22;;;12.20;99.90;;;;;;5030242;28;20412;-66
2022/03/14 11:31:22;;;;;;;9.60;5.72;;;12.10;99.90;;;;;;5048539;28;20513;-66
2022/03/14 11:33:48;;;;;;;10.50;6.60;;;12.00;99.90;;;;;;5050413;28;20347;-67
2022/03/14 11:36:18;;;;;;;7.30;6.70;;;12.20;99.90;;;;;;5040655;28;20036;-68
2022/03/14 11:38:45;;;;;;;10.50;6.68;;;12.20;99.90;;;;;;5040268;28;20132;-68
2022/03/14 11:41:10;;;;;;;12.88;7.35;;;12.20;99.90;;;;;;5041556;28;20059;-68
2022/03/14 11:43:39;;;;;;;7.53;6.22;;;12.30;99.90;;;;;;5043171;28;20469;-66
2022/03/14 11:46:05;;;;;;;7.25;6.45;;;12.30;99.90;;;;;;5034779;28;21310;-67
2022/03/14 11:48:32;;;;;;;8.45;6.57;;;12.30;99.90;;;;;;5052008;28;20469;-67
2022/03/14 11:51:03;;;;;;;8.55;6.88;;;12.20;99.90;;;;;;5043807;28;20028;-66
2022/03/14 11:53:31;;;;;;;8.13;6.68;;;12.20;99.90;;;;;;5047983;28;20427;-67
2022/03/14 11:56:08;;;;;;;13.23;6.72;;;12.30;99.90;;;;;;5046877;28;20022;-67
2022/03/14 11:58:37;;;;;;;9.52;5.57;;;12.20;99.90;;;;;;5046390;28;20033;-66
2022/03/14 12:01:18;;;;;;;9.68;5.88;;;12.20;99.90;;;;;;5041455;28;20589;-68
2022/03/14 12:03:54;;;;;;;9.45;6.47;;;12.10;99.90;;;;;;5040310;28;20119;-68
2022/03/14 12:06:44;;;;;;;9.27;6.78;;;12.10;99.90;;;;;;5042531;28;20360;-67
2022/03/14 12:09:10;;;;;;;7.57;6.68;;;12.00;99.90;;;;;;5042176;28;20028;-67
2022/03/14 12:11:41;;;;;;;9.18;5.97;;;11.90;99.90;;;;;;5044707;28;20403;-67
2022/03/14 12:14:11;;;;;;;9.13;6.22;;;11.70;99.90;;;;;;5039667;28;20104;-67
2022/03/14 12:16:45;;;;;;;7.43;6.45;;;11.60;99.90;;;;;;5041679;28;20035;-66
2022/03/14 12:19:29;;;;;;;8.75;6.43;;;11.60;99.90;;;;;;5043265;28;20483;-66
2022/03/14 12:21:56;;;;;;;8.00;6.00;;;11.60;99.90;;;;;;5041733;28;20136;-66
2022/03/14 12:24:37;;;;;;;9.23;6.30;;;11.60;99.90;;;;;;5045572;28;20028;-67
2022/03/14 12:27:26;;;;;;;7.10;6.40;;;11.70;99.90;;;;;;5043382;28;20245;-66
2022/03/14 12:29:54;;;;;;;9.10;7.18;;;11.50;99.90;;;;;;5043930;28;20025;-67
2022/03/14 12:32:31;;;;;;;6.20;5.60;;;11.60;99.90;;;;;;5045765;28;20032;-66
2022/03/14 12:35:04;;;;;;;8.27;6.10;;;11.70;99.90;;;;;;5045114;28;20552;-66
2022/03/14 12:37:46;;;;;;;9.90;6.35;;;11.80;99.90;;;;;;5040465;28;20029;-65
2022/03/14 12:40:34;;;;;;;8.77;6.15;;;11.80;99.90;;;;;;5042279;28;20025;-69
2022/03/14 12:43:31;;;;;;;11.30;6.63;;;11.70;99.90;;;;;;5041123;28;20386;-67